createdAt,value
2018-12-29T00:00:29.958Z,14.70
2018-12-29T00:02:58.373Z,14.67
2018-12-29T00:05:26.778Z,14.17
2018-12-29T00:07:55.221Z,13.77
2018-12-29T00:10:23.601Z,15.63
2018-12-29T00:12:54.046Z,15.53
2018-12-29T00:15:22.458Z,16.63
2018-12-29T00:17:50.848Z,16.63
2018-12-29T00:20:19.309Z,21.13
2018-12-29T00:22:47.657Z,17.17
2018-12-29T00:25:15.977Z,20.33
2018-12-29T00:27:44.357Z,15.90
2018-12-29T00:30:12.854Z,12.80
2018-12-29T00:32:41.202Z,14.30
2018-12-29T00:35:09.570Z,17.57
2018-12-29T00:37:37.946Z,15.50
2018-12-29T00:40:06.277Z,16.10
2018-12-29T00:42:34.649Z,12.40
2018-12-29T00:45:03.111Z,15.57
2018-12-29T00:47:31.649Z,13.90
2018-12-29T00:50:00.022Z,13.57
2018-12-29T00:52:28.407Z,14.47
2018-12-29T00:54:56.759Z,16.47
2018-12-29T00:57:25.111Z,14.83
2018-12-29T00:59:53.955Z,17.67
2018-12-29T01:02:24.197Z,15.43
2018-12-29T01:04:52.547Z,15.63
2018-12-29T01:07:21.002Z,15.20
2018-12-29T01:09:49.309Z,13.90
2018-12-29T01:12:17.685Z,13.90
2018-12-29T01:14:46.114Z,15.40
2018-12-29T01:17:14.434Z,15.30
2018-12-29T01:19:42.791Z,16.97
2018-12-29T01:22:11.113Z,22.97
2018-12-29T01:24:39.438Z,14.73
2018-12-29T01:27:07.790Z,15.47
2018-12-29T01:29:36.164Z,12.53
2018-12-29T01:32:04.482Z,17.83
2018-12-29T01:34:32.813Z,19.77
2018-12-29T01:37:01.162Z,13.47
2018-12-29T01:39:29.573Z,15.80
2018-12-29T01:41:57.897Z,12.80
2018-12-29T01:44:26.629Z,15.23
2018-12-29T01:46:54.939Z,16.97
2018-12-29T01:49:23.327Z,14.93
2018-12-29T01:51:51.669Z,12.53
2018-12-29T01:54:20.111Z,12.00
2018-12-29T01:56:48.539Z,15.13
2018-12-29T01:59:16.873Z,13.27
2018-12-29T02:01:45.222Z,11.43
2018-12-29T02:04:13.570Z,15.37
2018-12-29T02:06:41.918Z,12.43
2018-12-29T02:09:10.313Z,14.33
2018-12-29T02:11:38.650Z,16.97
2018-12-29T02:14:06.966Z,16.53
2018-12-29T02:16:35.358Z,15.57
2018-12-29T02:19:03.734Z,11.83
2018-12-29T02:21:32.061Z,14.33
2018-12-29T02:24:00.397Z,13.30
2018-12-29T02:26:28.902Z,13.30
2018-12-29T02:28:57.259Z,17.87
2018-12-29T02:31:25.590Z,17.53
2018-12-29T02:33:53.925Z,12.97
2018-12-29T02:36:22.290Z,15.43
2018-12-29T02:38:50.630Z,12.77
2018-12-29T02:41:18.978Z,12.30
2018-12-29T02:43:47.361Z,14.73
2018-12-29T02:46:15.686Z,19.43
2018-12-29T02:48:44.029Z,13.77
2018-12-29T02:51:12.445Z,13.73
2018-12-29T02:53:40.806Z,14.70
2018-12-29T02:56:09.133Z,16.10
2018-12-29T02:58:37.462Z,14.37
2018-12-29T03:01:05.788Z,13.83
2018-12-29T03:03:34.133Z,14.80
2018-12-29T03:06:02.804Z,17.57
2018-12-29T03:08:31.133Z,13.40
2018-12-29T03:10:59.449Z,14.27
2018-12-29T03:13:27.826Z,11.60
2018-12-29T03:15:56.222Z,12.57
2018-12-29T03:18:24.599Z,16.10
2018-12-29T03:20:53.030Z,14.90
2018-12-29T03:23:21.382Z,12.70
2018-12-29T03:25:49.757Z,16.10
2018-12-29T03:28:18.130Z,14.57
2018-12-29T03:30:46.526Z,13.20
2018-12-29T03:33:14.935Z,13.57
2018-12-29T03:35:43.291Z,15.63
2018-12-29T03:38:11.598Z,12.70
2018-12-29T03:40:39.982Z,14.13
2018-12-29T03:43:08.326Z,17.97
2018-12-29T03:45:37.022Z,16.77
2018-12-29T03:48:05.333Z,15.30
2018-12-29T03:50:33.694Z,15.57
2018-12-29T03:53:02.149Z,20.53
2018-12-29T03:55:30.478Z,15.70
2018-12-29T03:57:58.827Z,15.63
2018-12-29T04:00:27.135Z,20.40
2018-12-29T04:02:55.515Z,13.87
2018-12-29T04:05:23.910Z,16.43
2018-12-29T04:07:52.279Z,14.33
2018-12-29T04:10:20.738Z,16.27
2018-12-29T04:12:51.714Z,18.30
2018-12-29T04:15:20.206Z,13.70
2018-12-29T04:17:48.520Z,18.63
2018-12-29T04:20:16.910Z,15.90
2018-12-29T04:22:45.337Z,15.33
2018-12-29T04:25:13.670Z,16.07
2018-12-29T04:27:42.017Z,18.00
2018-12-29T04:30:10.375Z,14.40
2018-12-29T04:32:38.722Z,15.40
2018-12-29T04:35:07.154Z,16.27
2018-12-29T04:37:35.536Z,16.73
2018-12-29T04:40:04.354Z,13.97
2018-12-29T04:42:32.769Z,18.70
2018-12-29T04:45:01.203Z,16.77
2018-12-29T04:47:29.826Z,18.63
2018-12-29T04:49:58.126Z,12.47
2018-12-29T04:52:26.574Z,15.80
2018-12-29T04:54:55.025Z,16.17
2018-12-29T04:57:23.601Z,17.30
2018-12-29T04:59:51.951Z,20.57
2018-12-29T05:02:20.434Z,21.50
2018-12-29T05:04:48.745Z,10.67
2018-12-29T05:07:17.065Z,19.00
2018-12-29T05:09:45.456Z,21.47
2018-12-29T05:12:13.844Z,24.67
2018-12-29T05:14:42.166Z,17.50
2018-12-29T05:17:10.528Z,20.97
2018-12-29T05:19:38.925Z,18.47
2018-12-29T05:22:07.497Z,14.77
2018-12-29T05:24:36.005Z,15.73
2018-12-29T05:27:04.473Z,17.87
2018-12-29T05:29:32.838Z,17.63
2018-12-29T05:32:01.157Z,15.60
2018-12-29T05:34:29.485Z,25.43
2018-12-29T05:36:57.873Z,15.33
2018-12-29T05:39:26.194Z,17.83
2018-12-29T05:41:54.602Z,26.53
2018-12-29T05:44:22.921Z,18.67
2018-12-29T05:46:51.323Z,20.00
2018-12-29T05:49:19.909Z,17.53
2018-12-29T05:51:48.291Z,17.10
2018-12-29T05:54:16.663Z,12.07
2018-12-29T05:56:44.970Z,20.87
2018-12-29T05:59:13.303Z,21.70
2018-12-29T06:01:41.770Z,21.73
2018-12-29T06:04:10.094Z,20.03
2018-12-29T06:06:38.431Z,23.13
2018-12-29T06:09:06.786Z,20.50
2018-12-29T06:11:35.159Z,24.83
2018-12-29T06:14:03.463Z,20.10
2018-12-29T06:16:31.798Z,23.37
2018-12-29T06:19:00.182Z,22.33
2018-12-29T06:21:28.494Z,16.00
2018-12-29T06:23:56.841Z,21.90
2018-12-29T06:26:25.309Z,16.37
2018-12-29T06:28:53.793Z,25.43
2018-12-29T06:31:22.153Z,26.27
2018-12-29T06:33:50.507Z,19.70
2018-12-29T06:36:18.859Z,19.87
2018-12-29T06:38:47.279Z,22.53
2018-12-29T06:41:15.658Z,14.27
2018-12-29T06:43:44.048Z,25.03
2018-12-29T06:46:12.502Z,16.93
2018-12-29T06:48:40.849Z,19.07
2018-12-29T06:51:09.165Z,17.10
2018-12-29T06:53:37.581Z,17.07
2018-12-29T06:56:05.973Z,20.53
2018-12-29T06:58:34.299Z,15.87
2018-12-29T07:01:02.726Z,25.27
2018-12-29T07:03:31.069Z,20.90
2018-12-29T07:05:59.469Z,18.70
2018-12-29T07:08:27.882Z,20.60
2018-12-29T07:10:56.461Z,18.33
2018-12-29T07:13:24.795Z,17.43
2018-12-29T07:15:53.190Z,21.37
2018-12-29T07:18:21.605Z,18.50
2018-12-29T07:20:49.918Z,23.17
2018-12-29T07:23:18.246Z,19.90
2018-12-29T07:25:46.657Z,16.93
2018-12-29T07:28:15.018Z,27.30
2018-12-29T07:30:43.337Z,23.33
2018-12-29T07:33:11.902Z,20.37
2018-12-29T07:35:40.261Z,24.00
2018-12-29T07:38:08.590Z,19.33
2018-12-29T07:40:36.929Z,11.77
2018-12-29T07:43:05.323Z,18.83
2018-12-29T07:45:33.794Z,21.63
2018-12-29T07:48:02.202Z,23.10
2018-12-29T07:50:30.554Z,19.80
2018-12-29T07:52:59.150Z,14.77
2018-12-29T07:55:27.477Z,24.07
2018-12-29T07:57:55.814Z,25.60
2018-12-29T08:00:24.174Z,18.50
2018-12-29T08:02:52.646Z,20.30
2018-12-29T08:05:21.002Z,19.37
2018-12-29T08:07:49.589Z,15.00
2018-12-29T08:10:17.950Z,23.53
2018-12-29T08:12:46.274Z,20.90
2018-12-29T08:15:14.649Z,19.30
2018-12-29T08:17:43.098Z,25.87
2018-12-29T08:20:11.477Z,19.23
2018-12-29T08:22:39.790Z,22.20
2018-12-29T08:25:08.251Z,15.47
2018-12-29T08:27:36.571Z,18.83
2018-12-29T08:30:05.260Z,23.77
2018-12-29T08:32:33.755Z,23.23
2018-12-29T08:35:02.199Z,18.60
2018-12-29T08:37:30.649Z,16.60
2018-12-29T08:39:58.966Z,28.20
2018-12-29T08:42:27.322Z,21.60
2018-12-29T08:44:55.701Z,21.43
2018-12-29T08:47:24.080Z,24.43
2018-12-29T08:49:52.466Z,25.23
2018-12-29T08:52:20.786Z,23.57
2018-12-29T08:54:49.297Z,16.77
2018-12-29T08:57:17.630Z,23.03
2018-12-29T08:59:45.955Z,20.90
2018-12-29T09:02:14.273Z,17.90
2018-12-29T09:04:42.610Z,13.23
2018-12-29T09:07:10.953Z,14.90
2018-12-29T09:09:39.353Z,20.17
2018-12-29T09:12:07.669Z,18.67
2018-12-29T09:14:36.238Z,15.43
2018-12-29T09:17:11.885Z,16.13
2018-12-29T09:19:34.635Z,22.80
2018-12-29T09:22:02.998Z,19.47
2018-12-29T09:24:31.326Z,16.83
2018-12-29T09:26:59.673Z,17.70
2018-12-29T09:29:28.006Z,14.77
2018-12-29T09:31:56.370Z,18.53
2018-12-29T09:34:24.694Z,18.20
2018-12-29T09:36:53.038Z,22.53
2018-12-29T09:39:21.486Z,14.30
2018-12-29T09:41:51.353Z,20.93
2018-12-29T09:44:19.934Z,19.27
2018-12-29T09:46:48.323Z,17.43
2018-12-29T09:49:16.810Z,22.83
2018-12-29T09:51:45.122Z,25.23
2018-12-29T09:54:13.820Z,17.03
2018-12-29T09:56:42.479Z,20.50
2018-12-29T09:59:10.822Z,18.00
2018-12-29T10:01:39.461Z,22.40
2018-12-29T10:04:07.837Z,17.73
2018-12-29T10:06:36.210Z,18.43
2018-12-29T10:09:05.922Z,21.83
2018-12-29T10:11:34.293Z,17.77
2018-12-29T10:14:02.710Z,27.57
2018-12-29T10:16:31.190Z,20.00
2018-12-29T10:18:59.494Z,15.23
2018-12-29T10:21:27.823Z,22.73
2018-12-29T10:23:56.148Z,24.80
2018-12-29T10:26:24.477Z,20.63
2018-12-29T10:28:52.830Z,19.83
2018-12-29T10:31:21.225Z,18.03
2018-12-29T10:33:50.026Z,20.10
2018-12-29T10:36:18.387Z,22.13
2018-12-29T10:38:47.148Z,27.30
2018-12-29T10:41:15.466Z,19.83
2018-12-29T10:43:43.786Z,21.20
2018-12-29T10:46:12.209Z,25.87
2018-12-29T10:48:40.574Z,24.00
2018-12-29T10:51:08.966Z,26.77
2018-12-29T10:53:37.289Z,24.87
2018-12-29T10:56:05.641Z,25.47
2018-12-29T10:58:33.981Z,26.23
2018-12-29T11:01:02.309Z,21.07
2018-12-29T11:03:30.637Z,12.90
2018-12-29T11:05:59.070Z,18.57
2018-12-29T11:08:27.811Z,15.67
2018-12-29T11:10:56.155Z,20.83
2018-12-29T11:13:25.339Z,23.37
2018-12-29T11:15:53.873Z,22.10
2018-12-29T11:18:22.445Z,20.97
2018-12-29T11:20:50.838Z,23.80
2018-12-29T11:23:19.225Z,16.93
2018-12-29T11:25:47.769Z,49.63
2018-12-29T11:28:16.195Z,21.03
2018-12-29T11:30:44.786Z,25.37
2018-12-29T11:33:13.310Z,19.77
2018-12-29T11:35:41.743Z,21.47
2018-12-29T11:38:10.430Z,19.10
2018-12-29T11:40:38.910Z,23.87
2018-12-29T11:43:07.324Z,22.87
2018-12-29T11:45:35.820Z,17.57
2018-12-29T11:48:04.168Z,20.67
2018-12-29T11:50:32.640Z,22.33
2018-12-29T11:53:01.057Z,19.40
2018-12-29T11:55:29.539Z,20.27
2018-12-29T11:57:58.203Z,12.93
2018-12-29T12:00:26.604Z,18.70
2018-12-29T12:02:55.031Z,17.60
2018-12-29T12:05:23.745Z,23.00
2018-12-29T12:07:52.183Z,22.67
2018-12-29T12:10:21.049Z,18.33
2018-12-29T12:12:49.519Z,17.93
2018-12-29T12:15:17.987Z,16.00
2018-12-29T12:17:46.502Z,19.77
2018-12-29T12:20:15.047Z,23.30
2018-12-29T12:22:43.952Z,17.93
2018-12-29T12:25:12.523Z,17.27
2018-12-29T12:27:41.047Z,17.50
2018-12-29T12:30:09.507Z,17.20
2018-12-29T12:32:38.047Z,19.07
2018-12-29T12:35:07.057Z,17.17
2018-12-29T12:37:35.716Z,17.47
2018-12-29T12:40:04.190Z,18.13
2018-12-29T12:42:32.584Z,17.23
2018-12-29T12:45:01.227Z,18.63
2018-12-29T12:47:29.647Z,19.40
2018-12-29T12:49:58.246Z,14.80
2018-12-29T12:52:27.241Z,15.20
2018-12-29T12:54:56.116Z,18.30
2018-12-29T12:57:25.020Z,15.50
2018-12-29T12:59:53.946Z,14.53
2018-12-29T13:02:22.826Z,13.33
2018-12-29T13:04:51.213Z,18.43
2018-12-29T13:07:19.669Z,15.00
2018-12-29T13:09:48.005Z,13.25
2018-12-29T13:12:16.415Z,17.10
2018-12-29T13:14:44.853Z,18.40
2018-12-29T13:17:13.405Z,17.30
2018-12-29T13:19:41.711Z,15.60
2018-12-29T13:22:10.202Z,19.90
2018-12-29T13:24:38.721Z,17.70
2018-12-29T13:27:07.129Z,15.30
2018-12-29T13:29:35.654Z,19.27
2018-12-29T13:32:04.303Z,15.23
2018-12-29T13:34:32.780Z,19.67
2018-12-29T13:37:01.733Z,18.57
2018-12-29T13:39:30.195Z,16.63
2018-12-29T13:41:58.560Z,12.07
2018-12-29T13:44:26.994Z,17.43
2018-12-29T13:46:55.435Z,17.33
2018-12-29T13:49:24.036Z,15.07
2018-12-29T13:51:52.459Z,15.20
2018-12-29T13:54:20.908Z,17.23
2018-12-29T13:56:49.512Z,17.07
2018-12-29T13:59:17.902Z,12.47
2018-12-29T14:01:46.321Z,15.23
2018-12-29T14:04:14.756Z,18.23
2018-12-29T14:06:43.153Z,14.63
2018-12-29T14:09:11.582Z,12.00
2018-12-29T14:11:39.964Z,17.20
2018-12-29T14:14:08.447Z,15.43
2018-12-29T14:16:37.179Z,17.30
2018-12-29T14:19:05.774Z,13.03
2018-12-29T14:21:34.130Z,14.47
2018-12-29T14:24:02.509Z,13.43
2018-12-29T14:26:30.905Z,11.90
2018-12-29T14:28:59.453Z,14.43
2018-12-29T14:31:27.901Z,11.63
2018-12-29T14:33:56.231Z,13.40
2018-12-29T14:36:24.561Z,13.43
2018-12-29T14:38:53.046Z,17.07
2018-12-29T14:41:21.956Z,12.80
2018-12-29T14:43:50.574Z,11.63
2018-12-29T14:46:19.105Z,14.73
2018-12-29T14:48:47.695Z,8.30
2018-12-29T14:51:16.219Z,7.87
2018-12-29T14:53:44.999Z,17.93
2018-12-29T14:56:13.423Z,15.30
2018-12-29T14:58:41.774Z,11.63
2018-12-29T15:01:10.087Z,10.83
2018-12-29T15:03:38.413Z,11.40
2018-12-29T15:06:07.174Z,7.33
2018-12-29T15:08:35.510Z,8.63
2018-12-29T15:11:03.880Z,9.43
2018-12-29T15:13:32.533Z,13.55
2018-12-29T15:16:00.957Z,9.63
2018-12-29T15:18:29.431Z,8.97
2018-12-29T15:20:58.265Z,9.40
2018-12-29T15:23:26.710Z,10.53
2018-12-29T15:25:55.107Z,11.83
2018-12-29T15:28:23.665Z,10.53
2018-12-29T15:30:52.099Z,10.63
2018-12-29T15:33:20.791Z,9.97
2018-12-29T15:35:49.126Z,6.80
2018-12-29T15:38:17.838Z,6.73
2018-12-29T15:40:46.882Z,6.07
2018-12-29T15:43:15.221Z,9.75
2018-12-29T15:45:43.932Z,6.83
2018-12-29T15:48:12.259Z,5.97
2018-12-29T15:50:40.606Z,6.23
2018-12-29T15:53:09.206Z,6.73
2018-12-29T15:55:37.609Z,7.83
2018-12-29T15:58:06.338Z,6.97
2018-12-29T16:00:34.773Z,9.97
2018-12-29T16:03:03.537Z,6.20
2018-12-29T16:05:32.218Z,5.10
2018-12-29T16:08:00.617Z,6.30
2018-12-29T16:10:28.946Z,6.83
2018-12-29T16:12:57.394Z,10.23
2018-12-29T16:15:25.975Z,7.53
2018-12-29T16:17:59.043Z,7.03
2018-12-29T16:20:27.393Z,8.40
2018-12-29T16:22:56.163Z,6.50
2018-12-29T16:25:24.886Z,9.60
2018-12-29T16:27:53.419Z,6.13
2018-12-29T16:30:22.077Z,9.80
2018-12-29T16:32:50.845Z,9.03
2018-12-29T16:35:19.370Z,6.57
2018-12-29T16:37:47.947Z,7.47
2018-12-29T16:40:16.433Z,6.47
2018-12-29T16:42:45.002Z,8.57
2018-12-29T16:45:13.436Z,8.40
2018-12-29T16:47:42.122Z,7.40
2018-12-29T16:50:10.494Z,10.17
2018-12-29T16:52:39.150Z,7.07
2018-12-29T16:55:07.989Z,8.37
2018-12-29T16:57:36.432Z,8.23
2018-12-29T17:00:05.230Z,9.40
2018-12-29T17:02:33.630Z,5.37
2018-12-29T17:05:02.307Z,8.70
2018-12-29T17:07:30.649Z,6.33
2018-12-29T17:09:58.982Z,8.13
2018-12-29T17:12:27.644Z,7.97
2018-12-29T17:14:56.281Z,11.13
2018-12-29T17:17:24.626Z,6.87
2018-12-29T17:19:53.061Z,8.80
2018-12-29T17:22:21.414Z,6.13
2018-12-29T17:24:49.758Z,12.70
2018-12-29T17:27:18.154Z,7.73
2018-12-29T17:29:46.606Z,9.33
2018-12-29T17:32:15.097Z,8.27
2018-12-29T17:34:43.538Z,6.53
2018-12-29T17:37:11.880Z,6.53
2018-12-29T17:39:40.817Z,6.50
2018-12-29T17:42:09.142Z,5.27
2018-12-29T17:44:37.601Z,3.97
2018-12-29T17:47:06.018Z,3.00
2018-12-29T17:49:34.427Z,7.27
2018-12-29T17:52:03.114Z,8.90
2018-12-29T17:54:31.814Z,9.77
2018-12-29T17:57:00.194Z,8.33
2018-12-29T17:59:28.550Z,4.70
2018-12-29T18:01:56.969Z,6.50
2018-12-29T18:04:26.196Z,2.67
2018-12-29T18:06:54.945Z,5.77
2018-12-29T18:09:23.404Z,5.27
2018-12-29T18:11:52.065Z,6.53
2018-12-29T18:14:20.515Z,2.77
2018-12-29T18:16:48.951Z,3.33
2018-12-29T18:19:17.668Z,7.83
2018-12-29T18:21:46.174Z,9.47
2018-12-29T18:24:14.503Z,4.80
2018-12-29T18:26:43.221Z,8.27
2018-12-29T18:29:11.894Z,3.80
2018-12-29T18:31:40.193Z,5.77
2018-12-29T18:34:08.614Z,2.80
2018-12-29T18:36:37.006Z,2.20
2018-12-29T18:39:06.758Z,4.50
2018-12-29T18:41:35.074Z,5.87
2018-12-29T18:44:03.678Z,2.33
2018-12-29T18:46:32.114Z,2.07
2018-12-29T18:49:00.838Z,10.43
2018-12-29T18:51:29.165Z,7.30
2018-12-29T18:53:57.591Z,2.27
2018-12-29T18:56:26.244Z,1.80
2018-12-29T18:58:54.638Z,4.37
2018-12-29T19:01:23.238Z,3.10
2018-12-29T19:03:51.574Z,3.07
2018-12-29T19:06:20.130Z,3.03
2018-12-29T19:08:48.915Z,0.80
2018-12-29T19:11:17.260Z,0.73
2018-12-29T19:13:45.731Z,1.90
2018-12-29T19:16:14.521Z,8.23
2018-12-29T19:18:43.102Z,2.87
2018-12-29T19:21:11.842Z,6.83
2018-12-29T19:23:40.587Z,3.23
2018-12-29T19:26:09.318Z,8.13
2018-12-29T19:28:38.018Z,2.23
2018-12-29T19:31:06.340Z,3.13
2018-12-29T19:33:34.930Z,2.57
2018-12-29T19:36:03.270Z,3.93
2018-12-29T19:38:31.781Z,5.27
2018-12-29T19:41:00.275Z,4.33
2018-12-29T19:43:28.972Z,5.33
2018-12-29T19:45:57.363Z,3.47
2018-12-29T19:48:25.763Z,5.73
2018-12-29T19:50:55.011Z,5.80
2018-12-29T19:53:23.688Z,3.98
2018-12-29T19:55:52.431Z,7.33
2018-12-29T19:58:20.749Z,4.17
2018-12-29T20:00:49.378Z,4.53
2018-12-29T20:03:18.097Z,2.07
2018-12-29T20:05:46.822Z,4.30
2018-12-29T20:08:15.229Z,2.00
2018-12-29T20:10:43.629Z,2.10
2018-12-29T20:13:12.003Z,4.40
2018-12-29T20:15:40.325Z,3.27
2018-12-29T20:18:08.788Z,4.63
2018-12-29T20:20:37.269Z,0.57
2018-12-29T20:23:05.728Z,1.30
2018-12-29T20:25:34.209Z,4.67
2018-12-29T20:28:02.789Z,6.87
2018-12-29T20:30:31.208Z,1.50
2018-12-29T20:32:59.618Z,1.77
2018-12-29T20:35:28.232Z,8.40
2018-12-29T20:37:57.327Z,10.38
2018-12-29T20:40:25.694Z,8.67
2018-12-29T20:42:54.035Z,6.87
2018-12-29T20:45:22.596Z,14.77
2018-12-29T20:47:50.994Z,1.53
2018-12-29T20:50:19.606Z,10.80
2018-12-29T20:52:48.436Z,3.43
2018-12-29T20:55:17.272Z,8.07
2018-12-29T20:57:45.919Z,8.57
2018-12-29T21:00:14.462Z,11.80
2018-12-29T21:02:42.881Z,5.77
2018-12-29T21:05:12.483Z,6.30
2018-12-29T21:07:41.025Z,3.30
2018-12-29T21:10:09.591Z,2.00
2018-12-29T21:12:38.118Z,3.87
2018-12-29T21:15:06.950Z,1.40
2018-12-29T21:17:35.456Z,0.50
2018-12-29T21:20:03.935Z,3.70
2018-12-29T21:22:32.266Z,2.77
2018-12-29T21:25:00.639Z,4.73
2018-12-29T21:27:29.074Z,5.03
2018-12-29T21:29:57.435Z,0.87
2018-12-29T21:32:26.109Z,0.73
2018-12-29T21:34:54.698Z,2.13
2018-12-29T21:37:23.099Z,1.40
2018-12-29T21:39:51.620Z,0.60
2018-12-29T21:42:19.938Z,5.50
2018-12-29T21:44:48.265Z,2.47
2018-12-29T21:47:16.854Z,2.87
2018-12-29T21:49:45.162Z,3.63
2018-12-29T21:52:13.518Z,3.17
2018-12-29T21:54:41.862Z,5.50
2018-12-29T21:57:10.373Z,7.17
2018-12-29T21:59:38.689Z,1.80
2018-12-29T22:02:07.318Z,3.50
2018-12-29T22:04:35.645Z,1.63
2018-12-29T22:07:04.051Z,2.27
2018-12-29T22:09:33.273Z,1.13
2018-12-29T22:12:01.707Z,2.73
2018-12-29T22:14:30.645Z,4.27
2018-12-29T22:16:59.063Z,1.30
2018-12-29T22:19:27.409Z,2.13
2018-12-29T22:21:55.789Z,4.60
2018-12-29T22:24:24.193Z,0.87
2018-12-29T22:26:52.517Z,2.03
2018-12-29T22:29:20.874Z,3.80
2018-12-29T22:31:49.238Z,2.60
2018-12-29T22:34:17.585Z,1.67
2018-12-29T22:36:45.925Z,2.17
2018-12-29T22:39:14.294Z,3.43
2018-12-29T22:41:43.001Z,1.37
2018-12-29T22:44:11.306Z,2.00
2018-12-29T22:46:39.618Z,0.87
2018-12-29T22:49:07.957Z,1.00
2018-12-29T22:51:36.395Z,1.60
2018-12-29T22:54:04.889Z,3.20
2018-12-29T22:56:33.205Z,5.53
2018-12-29T22:59:01.573Z,2.33
2018-12-29T23:01:30.074Z,4.03
2018-12-29T23:03:58.379Z,2.67
2018-12-29T23:06:26.962Z,0.83
2018-12-29T23:08:55.350Z,8.73
2018-12-29T23:11:23.721Z,3.10
2018-12-29T23:13:52.038Z,2.07
2018-12-29T23:16:20.522Z,2.27
2018-12-29T23:18:49.282Z,1.13
2018-12-29T23:21:17.673Z,7.53
2018-12-29T23:23:45.986Z,4.50
2018-12-29T23:26:14.401Z,3.97
2018-12-29T23:28:42.807Z,5.93
2018-12-29T23:31:11.139Z,1.30
2018-12-29T23:33:39.609Z,0.57
2018-12-29T23:36:07.994Z,1.17
2018-12-29T23:38:36.339Z,2.43
2018-12-29T23:41:04.826Z,3.20
2018-12-29T23:43:33.613Z,3.97
2018-12-29T23:46:02.137Z,3.30
2018-12-29T23:48:30.461Z,6.07
2018-12-29T23:51:05.613Z,5.33
2018-12-29T23:53:28.947Z,7.67
2018-12-29T23:55:57.710Z,2.23
2018-12-29T23:58:26.170Z,3.97
